sensor_id;sensor_type;location;lat;lon;timestamp;P1;durP1;ratioP1;P2;durP2;ratioP2
19306;SDS011;9788;48.194;16.318;2023-11-19T00:00:31;14.67;;;9.47;;
19306;SDS011;9788;48.194;16.318;2023-11-19T00:03:01;13.47;;;9.10;;
19306;SDS011;9788;48.194;16.318;2023-11-19T00:05:29;14.00;;;8.77;;
19306;SDS011;9788;48.194;16.318;2023-11-19T00:07:57;17.17;;;8.80;;
19306;SDS011;9788;48.194;16.318;2023-11-19T00:10:25;14.90;;;8.53;;
19306;SDS011;9788;48.194;16.318;2023-11-19T00:12:54;13.67;;;8.63;;
19306;SDS011;9788;48.194;16.318;2023-11-19T00:15:23;14.47;;;9.40;;
19306;SDS011;9788;48.194;16.318;2023-11-19T00:17:52;11.50;;;8.60;;
19306;SDS011;9788;48.194;16.318;2023-11-19T00:20:22;14.97;;;8.13;;
19306;SDS011;9788;48.194;16.318;2023-11-19T00:22:50;16.50;;;9.10;;
19306;SDS011;9788;48.194;16.318;2023-11-19T00:25:19;12.83;;;8.53;;
19306;SDS011;9788;48.194;16.318;2023-11-19T00:27:49;13.10;;;8.20;;
19306;SDS011;9788;48.194;16.318;2023-11-19T00:30:20;11.00;;;7.87;;
19306;SDS011;9788;48.194;16.318;2023-11-19T00:32:52;12.70;;;8.77;;
19306;SDS011;9788;48.194;16.318;2023-11-19T00:35:22;14.20;;;8.97;;
19306;SDS011;9788;48.194;16.318;2023-11-19T00:37:50;11.97;;;7.90;;
19306;SDS011;9788;48.194;16.318;2023-11-19T00:40:20;14.93;;;8.63;;
19306;SDS011;9788;48.194;16.318;2023-11-19T00:42:49;13.57;;;8.03;;
19306;SDS011;9788;48.194;16.318;2023-11-19T00:45:17;14.63;;;7.70;;
19306;SDS011;9788;48.194;16.318;2023-11-19T00:47:45;13.57;;;7.90;;
19306;SDS011;9788;48.194;16.318;2023-11-19T00:50:14;10.50;;;7.73;;
19306;SDS011;9788;48.194;16.318;2023-11-19T00:52:43;12.40;;;7.77;;
19306;SDS011;9788;48.194;16.318;2023-11-19T00:55:12;12.80;;;8.40;;
19306;SDS011;9788;48.194;16.318;2023-11-19T00:57:40;13.30;;;8.37;;
19306;SDS011;9788;48.194;16.318;2023-11-19T01:00:09;12.43;;;8.13;;
19306;SDS011;9788;48.194;16.318;2023-11-19T01:02:46;12.97;;;8.90;;
19306;SDS011;9788;48.194;16.318;2023-11-19T01:05:18;12.03;;;8.27;;
19306;SDS011;9788;48.194;16.318;2023-11-19T01:07:51;14.07;;;8.87;;
19306;SDS011;9788;48.194;16.318;2023-11-19T01:10:21;14.23;;;8.73;;
19306;SDS011;9788;48.194;16.318;2023-11-19T01:12:50;15.90;;;11.00;;
19306;SDS011;9788;48.194;16.318;2023-11-19T01:15:20;13.27;;;8.93;;
19306;SDS011;9788;48.194;16.318;2023-11-19T01:17:50;15.43;;;8.53;;
19306;SDS011;9788;48.194;16.318;2023-11-19T01:20:19;15.97;;;9.07;;
19306;SDS011;9788;48.194;16.318;2023-11-19T01:22:48;13.57;;;8.40;;
19306;SDS011;9788;48.194;16.318;2023-11-19T01:25:18;14.23;;;8.30;;
19306;SDS011;9788;48.194;16.318;2023-11-19T01:27:46;14.07;;;8.60;;
19306;SDS011;9788;48.194;16.318;2023-11-19T01:30:15;16.27;;;8.43;;
19306;SDS011;9788;48.194;16.318;2023-11-19T01:32:43;13.40;;;8.13;;
19306;SDS011;9788;48.194;16.318;2023-11-19T01:35:12;14.40;;;8.67;;
19306;SDS011;9788;48.194;16.318;2023-11-19T01:37:40;12.23;;;8.43;;
19306;SDS011;9788;48.194;16.318;2023-11-19T01:40:09;13.33;;;8.50;;
19306;SDS011;9788;48.194;16.318;2023-11-19T01:42:40;14.13;;;8.57;;
19306;SDS011;9788;48.194;16.318;2023-11-19T01:45:08;14.67;;;9.17;;
19306;SDS011;9788;48.194;16.318;2023-11-19T01:47:37;13.10;;;8.57;;
19306;SDS011;9788;48.194;16.318;2023-11-19T01:50:06;15.23;;;9.70;;
19306;SDS011;9788;48.194;16.318;2023-11-19T01:52:35;13.53;;;8.87;;
19306;SDS011;9788;48.194;16.318;2023-11-19T01:55:05;13.50;;;8.23;;
19306;SDS011;9788;48.194;16.318;2023-11-19T01:57:36;12.87;;;8.17;;
19306;SDS011;9788;48.194;16.318;2023-11-19T02:00:09;13.90;;;8.60;;
19306;SDS011;9788;48.194;16.318;2023-11-19T02:02:39;14.20;;;8.53;;
19306;SDS011;9788;48.194;16.318;2023-11-19T02:05:08;15.70;;;7.97;;
19306;SDS011;9788;48.194;16.318;2023-11-19T02:07:37;12.57;;;8.07;;
19306;SDS011;9788;48.194;16.318;2023-11-19T02:10:06;11.63;;;8.47;;
19306;SDS011;9788;48.194;16.318;2023-11-19T02:12:39;12.57;;;8.23;;
19306;SDS011;9788;48.194;16.318;2023-11-19T02:15:10;13.37;;;8.97;;
19306;SDS011;9788;48.194;16.318;2023-11-19T02:17:38;12.87;;;8.30;;
19306;SDS011;9788;48.194;16.318;2023-11-19T02:20:07;13.47;;;7.90;;
19306;SDS011;9788;48.194;16.318;2023-11-19T02:22:38;13.47;;;8.10;;
19306;SDS011;9788;48.194;16.318;2023-11-19T02:25:07;10.03;;;7.67;;
19306;SDS011;9788;48.194;16.318;2023-11-19T02:27:46;10.50;;;7.77;;
19306;SDS011;9788;48.194;16.318;2023-11-19T02:30:22;12.43;;;6.93;;
19306;SDS011;9788;48.194;16.318;2023-11-19T02:32:55;10.83;;;7.37;;
19306;SDS011;9788;48.194;16.318;2023-11-19T02:35:25;10.33;;;7.60;;
19306;SDS011;9788;48.194;16.318;2023-11-19T02:37:53;12.23;;;7.23;;
19306;SDS011;9788;48.194;16.318;2023-11-19T02:40:22;10.03;;;6.63;;
19306;SDS011;9788;48.194;16.318;2023-11-19T02:42:52;9.33;;;6.70;;
19306;SDS011;9788;48.194;16.318;2023-11-19T02:45:22;8.60;;;6.77;;
19306;SDS011;9788;48.194;16.318;2023-11-19T02:47:50;8.63;;;6.33;;
19306;SDS011;9788;48.194;16.318;2023-11-19T02:50:19;9.83;;;7.00;;
19306;SDS011;9788;48.194;16.318;2023-11-19T02:52:53;8.57;;;6.50;;
19306;SDS011;9788;48.194;16.318;2023-11-19T02:55:23;8.67;;;6.50;;
19306;SDS011;9788;48.194;16.318;2023-11-19T02:57:56;8.53;;;6.87;;
19306;SDS011;9788;48.194;16.318;2023-11-19T03:00:26;7.40;;;6.00;;
19306;SDS011;9788;48.194;16.318;2023-11-19T03:03:01;8.60;;;6.33;;
19306;SDS011;9788;48.194;16.318;2023-11-19T03:05:44;8.80;;;6.77;;
19306;SDS011;9788;48.194;16.318;2023-11-19T03:08:13;8.60;;;6.77;;
19306;SDS011;9788;48.194;16.318;2023-11-19T03:10:45;8.97;;;6.80;;
19306;SDS011;9788;48.194;16.318;2023-11-19T03:13:14;8.67;;;5.93;;
19306;SDS011;9788;48.194;16.318;2023-11-19T03:15:43;8.37;;;6.63;;
19306;SDS011;9788;48.194;16.318;2023-11-19T03:18:12;9.83;;;6.57;;
19306;SDS011;9788;48.194;16.318;2023-11-19T03:20:41;10.87;;;7.43;;
19306;SDS011;9788;48.194;16.318;2023-11-19T03:23:09;9.07;;;6.77;;
19306;SDS011;9788;48.194;16.318;2023-11-19T03:25:37;8.20;;;6.60;;
19306;SDS011;9788;48.194;16.318;2023-11-19T03:28:06;8.47;;;6.30;;
19306;SDS011;9788;48.194;16.318;2023-11-19T03:30:35;9.33;;;6.80;;
19306;SDS011;9788;48.194;16.318;2023-11-19T03:33:03;9.77;;;7.33;;
19306;SDS011;9788;48.194;16.318;2023-11-19T03:35:32;11.40;;;7.40;;
19306;SDS011;9788;48.194;16.318;2023-11-19T03:38:00;11.83;;;7.93;;
19306;SDS011;9788;48.194;16.318;2023-11-19T03:40:28;8.43;;;6.70;;
19306;SDS011;9788;48.194;16.318;2023-11-19T03:42:57;11.73;;;6.93;;
19306;SDS011;9788;48.194;16.318;2023-11-19T03:45:25;11.33;;;7.60;;
19306;SDS011;9788;48.194;16.318;2023-11-19T03:47:55;11.00;;;6.90;;
19306;SDS011;9788;48.194;16.318;2023-11-19T03:50:23;8.70;;;6.60;;
19306;SDS011;9788;48.194;16.318;2023-11-19T03:52:51;9.37;;;6.87;;
19306;SDS011;9788;48.194;16.318;2023-11-19T03:55:19;11.20;;;6.70;;
19306;SDS011;9788;48.194;16.318;2023-11-19T03:57:47;8.47;;;6.53;;
19306;SDS011;9788;48.194;16.318;2023-11-19T04:00:16;9.57;;;7.10;;
19306;SDS011;9788;48.194;16.318;2023-11-19T04:02:47;9.70;;;7.10;;
19306;SDS011;9788;48.194;16.318;2023-11-19T04:05:17;10.40;;;7.17;;
19306;SDS011;9788;48.194;16.318;2023-11-19T04:07:46;11.47;;;7.40;;
19306;SDS011;9788;48.194;16.318;2023-11-19T04:10:14;9.20;;;6.80;;
19306;SDS011;9788;48.194;16.318;2023-11-19T04:12:44;9.57;;;7.07;;
19306;SDS011;9788;48.194;16.318;2023-11-19T04:15:12;10.50;;;6.67;;
19306;SDS011;9788;48.194;16.318;2023-11-19T04:17:41;9.60;;;7.23;;
19306;SDS011;9788;48.194;16.318;2023-11-19T04:20:10;10.00;;;7.50;;
19306;SDS011;9788;48.194;16.318;2023-11-19T04:22:42;9.77;;;7.60;;
19306;SDS011;9788;48.194;16.318;2023-11-19T04:25:10;10.40;;;7.37;;
19306;SDS011;9788;48.194;16.318;2023-11-19T04:27:38;11.13;;;7.77;;
19306;SDS011;9788;48.194;16.318;2023-11-19T04:30:07;10.73;;;8.00;;
19306;SDS011;9788;48.194;16.318;2023-11-19T04:32:37;9.07;;;6.80;;
19306;SDS011;9788;48.194;16.318;2023-11-19T04:35:07;9.80;;;7.37;;
19306;SDS011;9788;48.194;16.318;2023-11-19T04:37:36;8.73;;;7.13;;
19306;SDS011;9788;48.194;16.318;2023-11-19T04:40:06;10.20;;;8.20;;
19306;SDS011;9788;48.194;16.318;2023-11-19T04:42:35;10.80;;;7.63;;
19306;SDS011;9788;48.194;16.318;2023-11-19T04:45:04;11.57;;;8.10;;
19306;SDS011;9788;48.194;16.318;2023-11-19T04:47:33;12.53;;;8.80;;
19306;SDS011;9788;48.194;16.318;2023-11-19T04:50:02;10.70;;;7.70;;
19306;SDS011;9788;48.194;16.318;2023-11-19T04:52:31;11.03;;;7.77;;
19306;SDS011;9788;48.194;16.318;2023-11-19T04:55:06;12.57;;;8.07;;
19306;SDS011;9788;48.194;16.318;2023-11-19T04:57:37;13.83;;;8.60;;
19306;SDS011;9788;48.194;16.318;2023-11-19T05:00:07;12.10;;;8.50;;
19306;SDS011;9788;48.194;16.318;2023-11-19T05:02:40;11.70;;;8.83;;
19306;SDS011;9788;48.194;16.318;2023-11-19T05:05:08;12.17;;;8.40;;
19306;SDS011;9788;48.194;16.318;2023-11-19T05:07:37;11.80;;;8.87;;
19306;SDS011;9788;48.194;16.318;2023-11-19T05:10:07;13.67;;;9.10;;
19306;SDS011;9788;48.194;16.318;2023-11-19T05:12:36;12.37;;;8.83;;
19306;SDS011;9788;48.194;16.318;2023-11-19T05:15:05;10.47;;;8.70;;
19306;SDS011;9788;48.194;16.318;2023-11-19T05:17:34;13.17;;;9.13;;
19306;SDS011;9788;48.194;16.318;2023-11-19T05:20:04;11.07;;;8.37;;
19306;SDS011;9788;48.194;16.318;2023-11-19T05:22:39;12.70;;;9.37;;
19306;SDS011;9788;48.194;16.318;2023-11-19T05:25:09;12.77;;;8.83;;
19306;SDS011;9788;48.194;16.318;2023-11-19T05:27:37;12.73;;;8.43;;
19306;SDS011;9788;48.194;16.318;2023-11-19T05:30:06;13.53;;;9.03;;
19306;SDS011;9788;48.194;16.318;2023-11-19T05:32:36;12.87;;;8.83;;
19306;SDS011;9788;48.194;16.318;2023-11-19T05:35:05;12.43;;;9.00;;
19306;SDS011;9788;48.194;16.318;2023-11-19T05:37:35;13.87;;;8.93;;
19306;SDS011;9788;48.194;16.318;2023-11-19T05:40:03;13.03;;;9.20;;
19306;SDS011;9788;48.194;16.318;2023-11-19T05:42:39;13.83;;;8.73;;
19306;SDS011;9788;48.194;16.318;2023-11-19T05:45:08;13.47;;;9.27;;
19306;SDS011;9788;48.194;16.318;2023-11-19T05:47:38;13.50;;;9.50;;
19306;SDS011;9788;48.194;16.318;2023-11-19T05:50:07;13.17;;;8.90;;
19306;SDS011;9788;48.194;16.318;2023-11-19T05:52:36;13.47;;;8.80;;
19306;SDS011;9788;48.194;16.318;2023-11-19T05:55:04;14.43;;;9.30;;
19306;SDS011;9788;48.194;16.318;2023-11-19T05:57:36;13.83;;;9.30;;
19306;SDS011;9788;48.194;16.318;2023-11-19T06:00:09;14.90;;;10.23;;
19306;SDS011;9788;48.194;16.318;2023-11-19T06:02:39;16.10;;;10.03;;
19306;SDS011;9788;48.194;16.318;2023-11-19T06:05:07;14.17;;;9.60;;
19306;SDS011;9788;48.194;16.318;2023-11-19T06:07:36;15.83;;;9.77;;
19306;SDS011;9788;48.194;16.318;2023-11-19T06:10:05;14.07;;;9.33;;
19306;SDS011;9788;48.194;16.318;2023-11-19T06:12:36;13.93;;;9.97;;
19306;SDS011;9788;48.194;16.318;2023-11-19T06:15:09;14.37;;;10.03;;
19306;SDS011;9788;48.194;16.318;2023-11-19T06:17:38;14.20;;;10.27;;
19306;SDS011;9788;48.194;16.318;2023-11-19T06:20:07;15.37;;;10.67;;
19306;SDS011;9788;48.194;16.318;2023-11-19T06:22:38;17.13;;;11.13;;
19306;SDS011;9788;48.194;16.318;2023-11-19T06:25:06;17.63;;;11.07;;
19306;SDS011;9788;48.194;16.318;2023-11-19T06:27:35;17.97;;;11.50;;
19306;SDS011;9788;48.194;16.318;2023-11-19T06:30:03;19.23;;;12.27;;
19306;SDS011;9788;48.194;16.318;2023-11-19T06:32:33;18.33;;;11.93;;
19306;SDS011;9788;48.194;16.318;2023-11-19T06:35:02;18.40;;;13.00;;
19306;SDS011;9788;48.194;16.318;2023-11-19T06:37:31;21.23;;;13.77;;
19306;SDS011;9788;48.194;16.318;2023-11-19T06:39:59;21.93;;;13.77;;
19306;SDS011;9788;48.194;16.318;2023-11-19T06:42:28;20.17;;;13.60;;
19306;SDS011;9788;48.194;16.318;2023-11-19T06:44:56;19.23;;;13.47;;
19306;SDS011;9788;48.194;16.318;2023-11-19T06:47:25;20.30;;;13.70;;
19306;SDS011;9788;48.194;16.318;2023-11-19T06:49:55;20.23;;;12.67;;
19306;SDS011;9788;48.194;16.318;2023-11-19T06:52:23;17.83;;;12.30;;
19306;SDS011;9788;48.194;16.318;2023-11-19T06:54:51;19.57;;;12.63;;
19306;SDS011;9788;48.194;16.318;2023-11-19T06:57:33;18.03;;;12.03;;
19306;SDS011;9788;48.194;16.318;2023-11-19T07:00:02;18.13;;;12.00;;
19306;SDS011;9788;48.194;16.318;2023-11-19T07:02:31;18.77;;;12.00;;
19306;SDS011;9788;48.194;16.318;2023-11-19T07:05:01;19.53;;;13.20;;
19306;SDS011;9788;48.194;16.318;2023-11-19T07:07:31;19.13;;;13.00;;
19306;SDS011;9788;48.194;16.318;2023-11-19T07:09:59;18.83;;;13.10;;
19306;SDS011;9788;48.194;16.318;2023-11-19T07:12:28;21.00;;;12.90;;
19306;SDS011;9788;48.194;16.318;2023-11-19T07:14:57;20.67;;;13.10;;
19306;SDS011;9788;48.194;16.318;2023-11-19T07:17:25;19.43;;;13.13;;
19306;SDS011;9788;48.194;16.318;2023-11-19T07:19:53;18.37;;;11.90;;
19306;SDS011;9788;48.194;16.318;2023-11-19T07:22:27;17.23;;;12.27;;
19306;SDS011;9788;48.194;16.318;2023-11-19T07:24:57;18.17;;;11.77;;
19306;SDS011;9788;48.194;16.318;2023-11-19T07:27:25;22.33;;;13.60;;
19306;SDS011;9788;48.194;16.318;2023-11-19T07:29:54;18.20;;;13.03;;
19306;SDS011;9788;48.194;16.318;2023-11-19T07:32:22;20.77;;;13.53;;
19306;SDS011;9788;48.194;16.318;2023-11-19T07:34:50;22.27;;;14.37;;
19306;SDS011;9788;48.194;16.318;2023-11-19T07:37:19;20.80;;;13.47;;
19306;SDS011;9788;48.194;16.318;2023-11-19T07:39:50;22.33;;;13.83;;
19306;SDS011;9788;48.194;16.318;2023-11-19T07:42:18;22.17;;;13.80;;
19306;SDS011;9788;48.194;16.318;2023-11-19T07:44:46;20.93;;;13.53;;
19306;SDS011;9788;48.194;16.318;2023-11-19T07:47:17;19.67;;;13.13;;
19306;SDS011;9788;48.194;16.318;2023-11-19T07:49:45;21.00;;;13.70;;
19306;SDS011;9788;48.194;16.318;2023-11-19T07:52:14;18.37;;;12.67;;
19306;SDS011;9788;48.194;16.318;2023-11-19T07:54:45;19.07;;;13.27;;
19306;SDS011;9788;48.194;16.318;2023-11-19T07:57:17;19.43;;;13.03;;
19306;SDS011;9788;48.194;16.318;2023-11-19T07:59:46;17.97;;;12.50;;
19306;SDS011;9788;48.194;16.318;2023-11-19T08:02:14;23.30;;;13.73;;
19306;SDS011;9788;48.194;16.318;2023-11-19T08:04:43;18.20;;;12.40;;
19306;SDS011;9788;48.194;16.318;2023-11-19T08:07:12;18.63;;;12.93;;
19306;SDS011;9788;48.194;16.318;2023-11-19T08:09:41;21.07;;;13.10;;
19306;SDS011;9788;48.194;16.318;2023-11-19T08:12:09;17.27;;;12.00;;
19306;SDS011;9788;48.194;16.318;2023-11-19T08:14:38;17.13;;;12.07;;
19306;SDS011;9788;48.194;16.318;2023-11-19T08:17:06;17.20;;;12.00;;
19306;SDS011;9788;48.194;16.318;2023-11-19T08:19:35;17.53;;;11.60;;
19306;SDS011;9788;48.194;16.318;2023-11-19T08:22:03;16.73;;;11.23;;
19306;SDS011;9788;48.194;16.318;2023-11-19T08:24:31;16.40;;;11.23;;
19306;SDS011;9788;48.194;16.318;2023-11-19T08:26:59;17.70;;;11.13;;
19306;SDS011;9788;48.194;16.318;2023-11-19T08:29:29;17.50;;;12.30;;
19306;SDS011;9788;48.194;16.318;2023-11-19T08:31:58;17.40;;;11.50;;
19306;SDS011;9788;48.194;16.318;2023-11-19T08:34:28;16.53;;;11.20;;
19306;SDS011;9788;48.194;16.318;2023-11-19T08:36:57;21.93;;;14.00;;
19306;SDS011;9788;48.194;16.318;2023-11-19T08:39:25;19.53;;;12.17;;
19306;SDS011;9788;48.194;16.318;2023-11-19T08:41:53;17.80;;;13.03;;
19306;SDS011;9788;48.194;16.318;2023-11-19T08:44:23;15.87;;;12.10;;
19306;SDS011;9788;48.194;16.318;2023-11-19T08:46:51;17.57;;;11.60;;
19306;SDS011;9788;48.194;16.318;2023-11-19T08:49:21;16.70;;;11.40;;
19306;SDS011;9788;48.194;16.318;2023-11-19T08:51:49;19.13;;;12.13;;
19306;SDS011;9788;48.194;16.318;2023-11-19T08:54:17;17.50;;;12.33;;
19306;SDS011;9788;48.194;16.318;2023-11-19T08:56:46;17.23;;;11.90;;
19306;SDS011;9788;48.194;16.318;2023-11-19T08:59:14;19.27;;;11.93;;
19306;SDS011;9788;48.194;16.318;2023-11-19T09:01:43;16.40;;;12.47;;
19306;SDS011;9788;48.194;16.318;2023-11-19T09:04:11;16.13;;;11.53;;
19306;SDS011;9788;48.194;16.318;2023-11-19T09:06:42;16.37;;;11.07;;
19306;SDS011;9788;48.194;16.318;2023-11-19T09:09:10;14.50;;;10.70;;
19306;SDS011;9788;48.194;16.318;2023-11-19T09:11:39;13.23;;;10.47;;
19306;SDS011;9788;48.194;16.318;2023-11-19T09:14:07;14.93;;;10.53;;
19306;SDS011;9788;48.194;16.318;2023-11-19T09:16:35;14.20;;;11.23;;
19306;SDS011;9788;48.194;16.318;2023-11-19T09:19:04;16.77;;;11.70;;
19306;SDS011;9788;48.194;16.318;2023-11-19T09:21:32;11.83;;;9.63;;
19306;SDS011;9788;48.194;16.318;2023-11-19T09:24:05;14.50;;;10.40;;
19306;SDS011;9788;48.194;16.318;2023-11-19T09:26:34;17.10;;;10.80;;
19306;SDS011;9788;48.194;16.318;2023-11-19T09:29:05;14.43;;;10.27;;
19306;SDS011;9788;48.194;16.318;2023-11-19T09:31:34;13.70;;;10.40;;
19306;SDS011;9788;48.194;16.318;2023-11-19T09:34:02;11.90;;;9.40;;
19306;SDS011;9788;48.194;16.318;2023-11-19T09:36:30;12.57;;;9.73;;
19306;SDS011;9788;48.194;16.318;2023-11-19T09:38:58;11.83;;;9.67;;
19306;SDS011;9788;48.194;16.318;2023-11-19T09:41:29;12.83;;;9.33;;
19306;SDS011;9788;48.194;16.318;2023-11-19T09:43:58;12.53;;;9.97;;
19306;SDS011;9788;48.194;16.318;2023-11-19T09:46:26;11.83;;;8.80;;
19306;SDS011;9788;48.194;16.318;2023-11-19T09:48:56;13.10;;;9.47;;
19306;SDS011;9788;48.194;16.318;2023-11-19T09:51:26;11.47;;;8.60;;
19306;SDS011;9788;48.194;16.318;2023-11-19T09:53:56;11.30;;;8.60;;
19306;SDS011;9788;48.194;16.318;2023-11-19T09:56:24;11.30;;;9.17;;
19306;SDS011;9788;48.194;16.318;2023-11-19T09:58:55;12.60;;;9.37;;
19306;SDS011;9788;48.194;16.318;2023-11-19T10:01:26;12.30;;;9.83;;
19306;SDS011;9788;48.194;16.318;2023-11-19T10:03:59;14.13;;;9.30;;
19306;SDS011;9788;48.194;16.318;2023-11-19T10:06:28;11.97;;;9.10;;
19306;SDS011;9788;48.194;16.318;2023-11-19T10:08:57;11.07;;;8.83;;
19306;SDS011;9788;48.194;16.318;2023-11-19T10:11:26;11.93;;;9.37;;
19306;SDS011;9788;48.194;16.318;2023-11-19T10:13:55;12.80;;;9.33;;
19306;SDS011;9788;48.194;16.318;2023-11-19T10:16:28;13.70;;;9.83;;
19306;SDS011;9788;48.194;16.318;2023-11-19T10:19:18;12.70;;;9.77;;
19306;SDS011;9788;48.194;16.318;2023-11-19T10:21:49;12.97;;;9.70;;
19306;SDS011;9788;48.194;16.318;2023-11-19T10:24:28;13.33;;;9.50;;
19306;SDS011;9788;48.194;16.318;2023-11-19T10:27:02;14.53;;;10.10;;
19306;SDS011;9788;48.194;16.318;2023-11-19T10:29:32;12.87;;;9.90;;
19306;SDS011;9788;48.194;16.318;2023-11-19T10:32:01;13.67;;;9.93;;
19306;SDS011;9788;48.194;16.318;2023-11-19T10:34:49;12.10;;;9.33;;
19306;SDS011;9788;48.194;16.318;2023-11-19T10:37:27;14.53;;;10.07;;
19306;SDS011;9788;48.194;16.318;2023-11-19T10:39:58;12.80;;;9.50;;
19306;SDS011;9788;48.194;16.318;2023-11-19T10:42:26;12.77;;;10.07;;
19306;SDS011;9788;48.194;16.318;2023-11-19T10:44:56;12.63;;;10.20;;
19306;SDS011;9788;48.194;16.318;2023-11-19T10:47:24;13.70;;;9.67;;
19306;SDS011;9788;48.194;16.318;2023-11-19T10:49:58;12.37;;;9.07;;
19306;SDS011;9788;48.194;16.318;2023-11-19T10:52:26;13.40;;;9.50;;
19306;SDS011;9788;48.194;16.318;2023-11-19T10:54:55;13.00;;;9.63;;
19306;SDS011;9788;48.194;16.318;2023-11-19T10:57:29;16.00;;;10.80;;
19306;SDS011;9788;48.194;16.318;2023-11-19T11:00:02;11.23;;;8.70;;
19306;SDS011;9788;48.194;16.318;2023-11-19T11:02:36;13.07;;;9.52;;
19306;SDS011;9788;48.194;16.318;2023-11-19T11:05:08;10.45;;;8.45;;
19306;SDS011;9788;48.194;16.318;2023-11-19T11:07:38;10.00;;;7.80;;
19306;SDS011;9788;48.194;16.318;2023-11-19T11:10:08;9.90;;;8.23;;
19306;SDS011;9788;48.194;16.318;2023-11-19T11:12:39;9.63;;;8.40;;
19306;SDS011;9788;48.194;16.318;2023-11-19T11:15:10;10.10;;;7.90;;
19306;SDS011;9788;48.194;16.318;2023-11-19T11:17:39;11.57;;;8.30;;
19306;SDS011;9788;48.194;16.318;2023-11-19T11:20:11;11.20;;;8.17;;
19306;SDS011;9788;48.194;16.318;2023-11-19T11:22:41;8.03;;;6.87;;
19306;SDS011;9788;48.194;16.318;2023-11-19T11:25:23;11.23;;;7.97;;
19306;SDS011;9788;48.194;16.318;2023-11-19T11:28:06;10.30;;;8.00;;
19306;SDS011;9788;48.194;16.318;2023-11-19T11:30:53;10.50;;;7.80;;
19306;SDS011;9788;48.194;16.318;2023-11-19T11:33:34;11.23;;;7.87;;
19306;SDS011;9788;48.194;16.318;2023-11-19T11:36:30;11.40;;;7.63;;
19306;SDS011;9788;48.194;16.318;2023-11-19T11:39:02;11.20;;;7.93;;
19306;SDS011;9788;48.194;16.318;2023-11-19T11:41:34;12.53;;;8.60;;
19306;SDS011;9788;48.194;16.318;2023-11-19T11:44:02;10.47;;;7.93;;
19306;SDS011;9788;48.194;16.318;2023-11-19T11:49:27;10.70;;;8.60;;
19306;SDS011;9788;48.194;16.318;2023-11-19T11:52:01;11.37;;;9.10;;
19306;SDS011;9788;48.194;16.318;2023-11-19T11:54:36;10.87;;;8.63;;
19306;SDS011;9788;48.194;16.318;2023-11-19T11:57:06;11.17;;;8.13;;
19306;SDS011;9788;48.194;16.318;2023-11-19T11:59:50;9.53;;;7.53;;
19306;SDS011;9788;48.194;16.318;2023-11-19T12:02:20;9.70;;;7.88;;
19306;SDS011;9788;48.194;16.318;2023-11-19T12:04:51;11.48;;;8.55;;
19306;SDS011;9788;48.194;16.318;2023-11-19T12:07:21;10.80;;;7.53;;
19306;SDS011;9788;48.194;16.318;2023-11-19T12:09:51;10.90;;;8.80;;
19306;SDS011;9788;48.194;16.318;2023-11-19T12:12:22;11.47;;;7.77;;
19306;SDS011;9788;48.194;16.318;2023-11-19T12:15:01;12.00;;;7.70;;
19306;SDS011;9788;48.194;16.318;2023-11-19T12:17:43;12.77;;;10.33;;
19306;SDS011;9788;48.194;16.318;2023-11-19T12:20:17;10.90;;;8.45;;
19306;SDS011;9788;48.194;16.318;2023-11-19T12:22:50;11.07;;;8.67;;
19306;SDS011;9788;48.194;16.318;2023-11-19T12:25:18;11.07;;;8.68;;
19306;SDS011;9788;48.194;16.318;2023-11-19T12:27:48;10.13;;;8.13;;
19306;SDS011;9788;48.194;16.318;2023-11-19T12:30:18;11.60;;;8.03;;
19306;SDS011;9788;48.194;16.318;2023-11-19T12:32:52;9.52;;;7.80;;
19306;SDS011;9788;48.194;16.318;2023-11-19T12:35:21;10.50;;;7.80;;
19306;SDS011;9788;48.194;16.318;2023-11-19T12:37:50;10.23;;;8.35;;
19306;SDS011;9788;48.194;16.318;2023-11-19T12:40:20;11.03;;;8.10;;
19306;SDS011;9788;48.194;16.318;2023-11-19T12:42:50;11.05;;;8.68;;
19306;SDS011;9788;48.194;16.318;2023-11-19T12:45:19;10.40;;;8.77;;
19306;SDS011;9788;48.194;16.318;2023-11-19T12:47:51;13.33;;;9.10;;
19306;SDS011;9788;48.194;16.318;2023-11-19T12:50:53;20.97;;;13.67;;
19306;SDS011;9788;48.194;16.318;2023-11-19T12:53:25;12.93;;;9.67;;
19306;SDS011;9788;48.194;16.318;2023-11-19T12:55:54;13.60;;;10.27;;
19306;SDS011;9788;48.194;16.318;2023-11-19T12:58:29;16.47;;;11.33;;
19306;SDS011;9788;48.194;16.318;2023-11-19T13:01:01;14.93;;;10.63;;
19306;SDS011;9788;48.194;16.318;2023-11-19T13:03:33;14.17;;;10.53;;
19306;SDS011;9788;48.194;16.318;2023-11-19T13:06:05;16.57;;;10.30;;
19306;SDS011;9788;48.194;16.318;2023-11-19T13:08:37;12.97;;;10.13;;
19306;SDS011;9788;48.194;16.318;2023-11-19T13:11:07;13.57;;;10.70;;
19306;SDS011;9788;48.194;16.318;2023-11-19T13:13:54;20.83;;;12.57;;
19306;SDS011;9788;48.194;16.318;2023-11-19T13:16:23;14.43;;;10.80;;
19306;SDS011;9788;48.194;16.318;2023-11-19T13:18:53;16.87;;;11.47;;
19306;SDS011;9788;48.194;16.318;2023-11-19T13:21:23;13.03;;;9.77;;
19306;SDS011;9788;48.194;16.318;2023-11-19T13:23:52;13.23;;;10.23;;
19306;SDS011;9788;48.194;16.318;2023-11-19T13:26:20;17.93;;;11.23;;
19306;SDS011;9788;48.194;16.318;2023-11-19T13:28:51;17.97;;;11.63;;
19306;SDS011;9788;48.194;16.318;2023-11-19T13:31:19;16.67;;;11.30;;
19306;SDS011;9788;48.194;16.318;2023-11-19T13:33:48;13.13;;;9.83;;
19306;SDS011;9788;48.194;16.318;2023-11-19T13:36:18;16.52;;;11.63;;
19306;SDS011;9788;48.194;16.318;2023-11-19T13:38:46;17.45;;;12.85;;
19306;SDS011;9788;48.194;16.318;2023-11-19T13:41:14;15.43;;;10.82;;
19306;SDS011;9788;48.194;16.318;2023-11-19T13:43:42;18.87;;;12.00;;
19306;SDS011;9788;48.194;16.318;2023-11-19T13:46:11;17.83;;;11.05;;
19306;SDS011;9788;48.194;16.318;2023-11-19T13:48:40;16.00;;;10.88;;
19306;SDS011;9788;48.194;16.318;2023-11-19T13:51:08;15.50;;;10.53;;
19306;SDS011;9788;48.194;16.318;2023-11-19T13:53:38;16.25;;;10.95;;
19306;SDS011;9788;48.194;16.318;2023-11-19T13:56:09;13.83;;;10.67;;
19306;SDS011;9788;48.194;16.318;2023-11-19T13:58:37;16.60;;;10.18;;
19306;SDS011;9788;48.194;16.318;2023-11-19T14:01:06;16.58;;;10.98;;
19306;SDS011;9788;48.194;16.318;2023-11-19T14:03:36;15.45;;;11.45;;
19306;SDS011;9788;48.194;16.318;2023-11-19T14:06:05;15.40;;;11.40;;
19306;SDS011;9788;48.194;16.318;2023-11-19T14:08:34;15.15;;;11.23;;
19306;SDS011;9788;48.194;16.318;2023-11-19T14:11:05;18.00;;;12.40;;
19306;SDS011;9788;48.194;16.318;2023-11-19T14:13:33;16.23;;;11.47;;
19306;SDS011;9788;48.194;16.318;2023-11-19T14:16:02;18.15;;;13.23;;
19306;SDS011;9788;48.194;16.318;2023-11-19T14:18:32;17.17;;;11.53;;
19306;SDS011;9788;48.194;16.318;2023-11-19T14:21:01;18.35;;;12.45;;
19306;SDS011;9788;48.194;16.318;2023-11-19T14:23:31;19.67;;;12.33;;
19306;SDS011;9788;48.194;16.318;2023-11-19T14:26:02;22.80;;;13.50;;
19306;SDS011;9788;48.194;16.318;2023-11-19T14:28:36;21.50;;;13.50;;
19306;SDS011;9788;48.194;16.318;2023-11-19T14:31:21;19.57;;;12.70;;
19306;SDS011;9788;48.194;16.318;2023-11-19T14:33:49;20.00;;;13.23;;
19306;SDS011;9788;48.194;16.318;2023-11-19T14:36:19;17.70;;;12.37;;
19306;SDS011;9788;48.194;16.318;2023-11-19T14:38:48;18.00;;;11.83;;
19306;SDS011;9788;48.194;16.318;2023-11-19T14:41:17;22.03;;;12.57;;
19306;SDS011;9788;48.194;16.318;2023-11-19T14:43:46;21.23;;;13.37;;
19306;SDS011;9788;48.194;16.318;2023-11-19T14:46:15;22.37;;;15.13;;
19306;SDS011;9788;48.194;16.318;2023-11-19T14:48:43;23.83;;;14.13;;
19306;SDS011;9788;48.194;16.318;2023-11-19T14:51:11;19.17;;;13.47;;